NAA weather

Narrabri Airport
Narrabri, New South Wales, Australia

Public forecast

Using degrees Celsius for public forecast. Weather courtesy of forecast.io.

Current aviation weather report (METAR) for Narrabri Airport

Retrieved 2019/12/14 20:00 UTC (53 minutes ago):

YNBR 142000Z AUTO 15011KT 9999 // NCD 22/11 Q1010

Closest aviation forecast (TAF) to Narrabri Airport

Closest forecast is Tamworth Airport, 69.9 nm (129.4 km) SE. Retrieved 2019/12/14 18:36 UTC (2 hours ago):

TAF YSTW 141703Z 1418/1512 13005KT 8000 -FU NSC FM150000 24011KT 8000 -FU NSC FM151000 16005KT 8000 -FU NSC PROB30 1418/1512 5000 FU